WetterOnline ( https://www.wetteronline.de )

Wetter aktuell Eschweiler

Aktuelles Wetter: Aachen-Orsbach (231m)

6-stündlich | Neueste Meldungen
Ortszeit Temperatur Wetter
Mi, 29.05. 14:00 16.4° C bewölkt
Mi, 29.05. 8:00 13.3° C leichter Regen
Mi, 29.05. 2:00 13.9° C wolkig
Di, 28.05. 20:00 14.0° C bewölkt
Di, 28.05. 14:00 17.9° C wolkig
Di, 28.05. 8:00 10.5° C wolkig
Di, 28.05. 2:00 10.0° C wolkig
Mo, 27.05. 20:00 12.4° C bewölkt
Ortszeit Temperatur Wetter
Mi, 29.05. 16:00 15.8° C Regen
Mi, 29.05. 15:50 15.8° C bedeckt
Mi, 29.05. 15:40 14.7° C bewölkt
Mi, 29.05. 15:30 13.6° C leichter Regen
Mi, 29.05. 15:20 13.6° C leichter Regen
Mi, 29.05. 15:10 13.0° C starker Regen
Mi, 29.05. 15:00 14.5° C Regen
Mi, 29.05. 14:30 15.0° C leichter Regen
Mi, 29.05. 14:00 16.4° C bewölkt
Mi, 29.05. 13:30 17.0° C bewölkt
Mi, 29.05. 13:00 16.1° C bewölkt
Ortszeit Relative Feuchte Sichtweite
Mi, 29.05. 14:00 77% >70 km
Mi, 29.05. 8:00 99% 3.3 km
Mi, 29.05. 2:00 93% 60 km
Di, 28.05. 20:00 86% 35 km
Di, 28.05. 14:00 65% 65 km
Di, 28.05. 8:00 86% 55 km
Di, 28.05. 2:00 94% 50 km
Mo, 27.05. 20:00 95% 35 km
Ortszeit Relative Feuchte Sichtweite
Mi, 29.05. 16:00 93% 50 km
Mi, 29.05. 15:50 93% -
Mi, 29.05. 15:40 94% -
Mi, 29.05. 15:30 97% 45 km
Mi, 29.05. 15:20 97% -
Mi, 29.05. 15:10 99% -
Mi, 29.05. 15:00 95% 3.8 km
Mi, 29.05. 14:30 94% 6 km
Mi, 29.05. 14:00 77% >70 km
Mi, 29.05. 13:30 79% 65 km
Mi, 29.05. 13:00 78% >70 km
Ortszeit Niederschlagsmenge Niederschlagsart
Mi, 29.05. 14:00 1 l/m2 in 6 Std. Regen
Mi, 29.05. 8:00 2 l/m2 in 12 Std. Regen
Mi, 29.05. 2:00 0.7 l/m2 in 6 Std. Regen
Di, 28.05. 20:00 1 l/m2 in 12 Std. Regen
Di, 28.05. 14:00 0.0 l/m2 in 6 Std. -
Di, 28.05. 8:00 0.9 l/m2 in 12 Std. -
Di, 28.05. 2:00 0.9 l/m2 in 6 Std. Regen
Mo, 27.05. 20:00 5 l/m2 in 12 Std. Regen
Ortszeit Niederschlagsmenge Niederschlagsart
Mi, 29.05. 16:00 5.9 l/m2 in 1 Std. Regen
Mi, 29.05. 15:50 keine Meldung -
Mi, 29.05. 15:40 keine Meldung -
Mi, 29.05. 15:30 5.9 l/m2 in 30 Min -
Mi, 29.05. 15:20 keine Meldung -
Mi, 29.05. 15:10 keine Meldung -
Mi, 29.05. 15:00 1.0 l/m2 in 1 Std. Regen
Mi, 29.05. 14:30 0.5 l/m2 in 30 Min -
Mi, 29.05. 14:00 <0.05 l/m2 in 1 Std. Regen
Mi, 29.05. 13:30 0.0 l/m2 in 30 Min -
Mi, 29.05. 13:00 <0.05 l/m2 in 1 Std. Regen
Ortszeit Stärke Spitze Richtung
km/h Bft. km/h Grad Sektor
Mi, 29.05. 14:00 32 5 47 230° SW
Mi, 29.05. 8:00 24 4 43 230° SW
Mi, 29.05. 2:00 24 4 41 220° SW
Di, 28.05. 20:00 24 4 43 210° SW
Di, 28.05. 14:00 22 4 40 220° SW
Di, 28.05. 8:00 14 3 25 210° SW
Di, 28.05. 2:00 13 3 30 240° SW
Mo, 27.05. 20:00 9 2 39 240° SW
Ortszeit Stärke Spitze Richtung
km/h Bft. km/h Grad Sektor
Mi, 29.05. 16:00 18 3 36 230° SW
Mi, 29.05. 15:50 18 3 - 230° SW
Mi, 29.05. 15:40 18 3 - 240° SW
Mi, 29.05. 15:30 24 4 37 240° SW
Mi, 29.05. 15:20 24 4 - 240° SW
Mi, 29.05. 15:10 24 4 - 240° SW
Mi, 29.05. 15:00 26 4 48 230° SW
Mi, 29.05. 14:30 25 4 50 230° SW
Mi, 29.05. 14:00 32 5 47 230° SW
Mi, 29.05. 13:30 29 5 47 220° SW
Mi, 29.05. 13:00 31 5 46 220° SW
Ortszeit Untergrenze Bedeckung Gattung
total tief tief mittel hoch
Mi, 29.05. 14:00 630 m 7/8 7/8 - - -
Mi, 29.05. 8:00 210 m 8/8 8/8 - - -
Mi, 29.05. 2:00 630 m 8/8 2/8 - - -
Di, 28.05. 20:00 630 m 7/8 7/8 - - -
Di, 28.05. 14:00 1140 m 6/8 6/8 - - -
Di, 28.05. 8:00 870 m 5/8 5/8 - - -
Di, 28.05. 2:00 1290 m 6/8 6/8 - - -
Mo, 27.05. 20:00 210 m 7/8 7/8 - - -
Ortszeit Bedeckungsgrad in Achtel und Wolkenuntergrenze
Mi, 29.05. 16:00 5(930m) 7(1260m) 8(1500m)
Mi, 29.05. 15:50 5(930m) 7(1260m) 8(1500m)
Mi, 29.05. 15:40 7
Mi, 29.05. 15:30 2(150m) 7(900m) 8(1110m)
Mi, 29.05. 15:20 2(150m) 7(900m) 8(1110m)
Mi, 29.05. 15:10 8
Mi, 29.05. 15:00 2(450m) 5(900m) 7(1140m)
Mi, 29.05. 14:30 1(570m) 7(1380m) 8(1500m)
Mi, 29.05. 14:00 2(630m) 7(990m) 7(1500m)
Mi, 29.05. 13:30 3(600m) 5(1410m) 7(1500m)
Mi, 29.05. 13:00 4(630m) 6(1320m) 7(1500m)
Ortszeit Luftdruck NN (hPa) Tendenz (hPa in 3 Std.)
Mi, 29.05. 14:00 1010 - 1,1
Mi, 29.05. 8:00 1012 - 0,2
Mi, 29.05. 2:00 1014 - 1,3
Di, 28.05. 20:00 1016 - 1,0
Di, 28.05. 14:00 1018 - 1,3
Di, 28.05. 8:00 1020 + 0,4
Di, 28.05. 2:00 1019 + 0,5
Mo, 27.05. 20:00 1017 + 0,5
Ortszeit Luftdruck NN (hPa) Tendenz (hPa in 3 Std.)
Mi, 29.05. 16:00 1009 - 0,7
Mi, 29.05. 15:50 1009 keine Meldung
Mi, 29.05. 15:40 1010 keine Meldung
Mi, 29.05. 15:30 1010 - 0,6
Mi, 29.05. 15:20 1010 keine Meldung
Mi, 29.05. 15:10 1010 keine Meldung
Mi, 29.05. 15:00 1010 - 1,0
Mi, 29.05. 14:30 1010 - 1,0
Mi, 29.05. 14:00 1010 - 1,1
Mi, 29.05. 13:30 1010 - 1,2
Mi, 29.05. 13:00 1010 - 1,0
Ortszeit Schneehöhe (cm)
Mi, 29.05. 14:00 0
Mi, 29.05. 8:00 0
Mi, 29.05. 2:00 0
Di, 28.05. 20:00 0
Di, 28.05. 14:00 0
Di, 28.05. 8:00 0
Di, 28.05. 2:00 0
Mo, 27.05. 20:00 0
Ortszeit Schneehöhe (cm)
Mi, 29.05. 16:00 0
Mi, 29.05. 15:50 0
Mi, 29.05. 15:40 -
Mi, 29.05. 15:30 0
Mi, 29.05. 15:20 0
Mi, 29.05. 15:10 -
Mi, 29.05. 15:00 0
Mi, 29.05. 14:30 0
Mi, 29.05. 14:00 0
Mi, 29.05. 13:30 0
Mi, 29.05. 13:00 0
Link zu dieser Seite / Seite empfehlen

Das Wetter in ...